sensor_id;sensor_type;location;lat;lon;timestamp;temperature;humidity
2663;DHT22;49701;48.072;7.800;2022-09-21T00:01:21;12.70;99.90
2663;DHT22;49701;48.072;7.800;2022-09-21T00:03:47;12.60;99.90
2663;DHT22;49701;48.072;7.800;2022-09-21T00:06:16;12.60;99.90
2663;DHT22;49701;48.072;7.800;2022-09-21T00:08:42;12.50;99.90
2663;DHT22;49701;48.072;7.800;2022-09-21T00:11:18;12.50;99.90
2663;DHT22;49701;48.072;7.800;2022-09-21T00:13:43;12.40;99.90
2663;DHT22;49701;48.072;7.800;2022-09-21T00:16:11;12.40;99.90
2663;DHT22;49701;48.072;7.800;2022-09-21T00:18:37;12.30;99.90
2663;DHT22;49701;48.072;7.800;2022-09-21T00:21:12;12.30;99.90
2663;DHT22;49701;48.072;7.800;2022-09-21T00:23:38;12.20;99.90
2663;DHT22;49701;48.072;7.800;2022-09-21T00:26:08;12.20;99.90
2663;DHT22;49701;48.072;7.800;2022-09-21T00:28:34;12.10;99.90
2663;DHT22;49701;48.072;7.800;2022-09-21T00:31:05;12.10;99.90
2663;DHT22;49701;48.072;7.800;2022-09-21T00:33:31;12.10;99.90
2663;DHT22;49701;48.072;7.800;2022-09-21T00:36:04;12.00;99.90
2663;DHT22;49701;48.072;7.800;2022-09-21T00:38:31;12.00;99.90
2663;DHT22;49701;48.072;7.800;2022-09-21T00:40:57;11.90;99.90
2663;DHT22;49701;48.072;7.800;2022-09-21T00:43:22;11.90;99.90
2663;DHT22;49701;48.072;7.800;2022-09-21T00:45:49;11.80;99.90
2663;DHT22;49701;48.072;7.800;2022-09-21T00:48:18;11.80;99.90
2663;DHT22;49701;48.072;7.800;2022-09-21T00:50:48;11.70;99.90
2663;DHT22;49701;48.072;7.800;2022-09-21T00:53:14;11.70;99.90
2663;DHT22;49701;48.072;7.800;2022-09-21T00:55:44;11.60;99.90
2663;DHT22;49701;48.072;7.800;2022-09-21T00:58:15;11.50;99.90
2663;DHT22;49701;48.072;7.800;2022-09-21T01:00:42;11.50;99.90
2663;DHT22;49701;48.072;7.800;2022-09-21T01:03:09;11.50;99.90
2663;DHT22;49701;48.072;7.800;2022-09-21T01:05:36;11.40;99.90
2663;DHT22;49701;48.072;7.800;2022-09-21T01:08:04;11.40;99.90
2663;DHT22;49701;48.072;7.800;2022-09-21T01:10:44;11.40;99.90
2663;DHT22;49701;48.072;7.800;2022-09-21T01:13:27;11.20;99.90
2663;DHT22;49701;48.072;7.800;2022-09-21T01:16:06;11.20;99.90
2663;DHT22;49701;48.072;7.800;2022-09-21T01:18:39;11.10;99.90
2663;DHT22;49701;48.072;7.800;2022-09-21T01:24:21;11.10;99.90
2663;DHT22;49701;48.072;7.800;2022-09-21T01:27:03;11.00;99.90
2663;DHT22;49701;48.072;7.800;2022-09-21T01:34:37;10.80;99.90
2663;DHT22;49701;48.072;7.800;2022-09-21T01:37:13;10.70;99.90
2663;DHT22;49701;48.072;7.800;2022-09-21T01:39:41;10.60;99.90
2663;DHT22;49701;48.072;7.800;2022-09-21T01:42:09;10.60;99.90
2663;DHT22;49701;48.072;7.800;2022-09-21T01:44:38;10.60;99.90
2663;DHT22;49701;48.072;7.800;2022-09-21T01:47:06;10.60;99.90
2663;DHT22;49701;48.072;7.800;2022-09-21T01:49:38;10.50;99.90
2663;DHT22;49701;48.072;7.800;2022-09-21T01:52:12;10.50;99.90
2663;DHT22;49701;48.072;7.800;2022-09-21T01:54:44;10.50;99.90
2663;DHT22;49701;48.072;7.800;2022-09-21T01:57:26;10.50;99.90
2663;DHT22;49701;48.072;7.800;2022-09-21T01:59:57;10.50;99.90
2663;DHT22;49701;48.072;7.800;2022-09-21T02:03:04;10.40;99.90
2663;DHT22;49701;48.072;7.800;2022-09-21T02:05:30;10.40;99.90
2663;DHT22;49701;48.072;7.800;2022-09-21T02:07:57;10.40;99.90
2663;DHT22;49701;48.072;7.800;2022-09-21T02:10:49;10.50;99.90
2663;DHT22;49701;48.072;7.800;2022-09-21T02:13:17;10.50;99.90
2663;DHT22;49701;48.072;7.800;2022-09-21T02:18:28;10.40;99.90
2663;DHT22;49701;48.072;7.800;2022-09-21T02:20:57;10.30;99.90
2663;DHT22;49701;48.072;7.800;2022-09-21T02:23:25;10.20;99.90
2663;DHT22;49701;48.072;7.800;2022-09-21T02:26:02;10.20;99.90
2663;DHT22;49701;48.072;7.800;2022-09-21T02:28:52;10.10;99.90
2663;DHT22;49701;48.072;7.800;2022-09-21T02:31:29;10.10;99.90
2663;DHT22;49701;48.072;7.800;2022-09-21T02:34:15;10.10;99.90
2663;DHT22;49701;48.072;7.800;2022-09-21T02:36:48;10.10;99.90
2663;DHT22;49701;48.072;7.800;2022-09-21T02:39:20;10.00;99.90
2663;DHT22;49701;48.072;7.800;2022-09-21T02:42:01;10.00;99.90
2663;DHT22;49701;48.072;7.800;2022-09-21T02:44:35;10.00;99.90
2663;DHT22;49701;48.072;7.800;2022-09-21T02:49:41;9.90;99.90
2663;DHT22;49701;48.072;7.800;2022-09-21T02:52:12;9.90;99.90
2663;DHT22;49701;48.072;7.800;2022-09-21T02:54:39;9.80;99.90
2663;DHT22;49701;48.072;7.800;2022-09-21T02:57:08;9.80;99.90
2663;DHT22;49701;48.072;7.800;2022-09-21T02:59:34;9.70;99.90
2663;DHT22;49701;48.072;7.800;2022-09-21T03:02:00;9.70;99.90
2663;DHT22;49701;48.072;7.800;2022-09-21T03:04:26;9.60;99.90
2663;DHT22;49701;48.072;7.800;2022-09-21T03:06:52;9.60;99.90
2663;DHT22;49701;48.072;7.800;2022-09-21T03:09:18;9.50;99.90
2663;DHT22;49701;48.072;7.800;2022-09-21T03:11:45;9.50;99.90
2663;DHT22;49701;48.072;7.800;2022-09-21T03:14:11;9.40;99.90
2663;DHT22;49701;48.072;7.800;2022-09-21T03:16:37;9.40;99.90
2663;DHT22;49701;48.072;7.800;2022-09-21T03:19:03;9.40;99.90
2663;DHT22;49701;48.072;7.800;2022-09-21T03:21:29;9.40;99.90
2663;DHT22;49701;48.072;7.800;2022-09-21T03:23:55;9.40;99.90
2663;DHT22;49701;48.072;7.800;2022-09-21T03:26:21;9.40;99.90
2663;DHT22;49701;48.072;7.800;2022-09-21T03:28:50;9.40;99.90
2663;DHT22;49701;48.072;7.800;2022-09-21T03:31:17;9.40;99.90
2663;DHT22;49701;48.072;7.800;2022-09-21T03:33:43;9.40;99.90
2663;DHT22;49701;48.072;7.800;2022-09-21T03:36:09;9.40;99.90
2663;DHT22;49701;48.072;7.800;2022-09-21T03:38:34;9.40;99.90
2663;DHT22;49701;48.072;7.800;2022-09-21T03:41:00;9.40;99.90
2663;DHT22;49701;48.072;7.800;2022-09-21T03:43:26;9.40;99.90
2663;DHT22;49701;48.072;7.800;2022-09-21T03:45:52;9.40;99.90
2663;DHT22;49701;48.072;7.800;2022-09-21T03:48:18;9.30;99.90
2663;DHT22;49701;48.072;7.800;2022-09-21T03:50:43;9.30;99.90
2663;DHT22;49701;48.072;7.800;2022-09-21T03:53:09;9.30;99.90
2663;DHT22;49701;48.072;7.800;2022-09-21T03:55:35;9.30;99.90
2663;DHT22;49701;48.072;7.800;2022-09-21T03:58:01;9.30;99.90
2663;DHT22;49701;48.072;7.800;2022-09-21T04:00:28;9.20;99.90
2663;DHT22;49701;48.072;7.800;2022-09-21T04:02:54;9.30;99.90
2663;DHT22;49701;48.072;7.800;2022-09-21T04:05:20;9.20;99.90
2663;DHT22;49701;48.072;7.800;2022-09-21T04:07:46;9.20;99.90
2663;DHT22;49701;48.072;7.800;2022-09-21T04:10:17;9.20;99.90
2663;DHT22;49701;48.072;7.800;2022-09-21T04:12:44;9.10;99.90
2663;DHT22;49701;48.072;7.800;2022-09-21T04:15:12;9.10;99.90
2663;DHT22;49701;48.072;7.800;2022-09-21T04:17:38;9.10;99.90
2663;DHT22;49701;48.072;7.800;2022-09-21T04:20:04;9.00;99.90
2663;DHT22;49701;48.072;7.800;2022-09-21T04:22:30;9.00;99.90
2663;DHT22;49701;48.072;7.800;2022-09-21T04:24:56;9.00;99.90
2663;DHT22;49701;48.072;7.800;2022-09-21T04:27:22;9.00;99.90
2663;DHT22;49701;48.072;7.800;2022-09-21T04:29:48;9.00;99.90
2663;DHT22;49701;48.072;7.800;2022-09-21T04:32:14;9.00;99.90
2663;DHT22;49701;48.072;7.800;2022-09-21T04:34:39;9.00;99.90
2663;DHT22;49701;48.072;7.800;2022-09-21T04:37:06;9.00;99.90
2663;DHT22;49701;48.072;7.800;2022-09-21T04:39:35;9.00;99.90
2663;DHT22;49701;48.072;7.800;2022-09-21T04:42:01;9.00;99.90
2663;DHT22;49701;48.072;7.800;2022-09-21T04:44:27;8.90;99.90
2663;DHT22;49701;48.072;7.800;2022-09-21T04:46:52;8.80;99.90
2663;DHT22;49701;48.072;7.800;2022-09-21T04:49:18;8.70;99.90
2663;DHT22;49701;48.072;7.800;2022-09-21T04:51:43;8.70;99.90
2663;DHT22;49701;48.072;7.800;2022-09-21T04:54:09;8.70;99.90
2663;DHT22;49701;48.072;7.800;2022-09-21T04:56:35;8.70;99.90
2663;DHT22;49701;48.072;7.800;2022-09-21T04:59:00;8.70;99.90
2663;DHT22;49701;48.072;7.800;2022-09-21T05:01:26;8.60;99.90
2663;DHT22;49701;48.072;7.800;2022-09-21T05:03:52;8.60;99.90
2663;DHT22;49701;48.072;7.800;2022-09-21T05:06:17;8.60;99.90
2663;DHT22;49701;48.072;7.800;2022-09-21T05:08:43;8.60;99.90
2663;DHT22;49701;48.072;7.800;2022-09-21T05:11:27;8.60;99.90
2663;DHT22;49701;48.072;7.800;2022-09-21T05:13:53;8.50;99.90
2663;DHT22;49701;48.072;7.800;2022-09-21T05:16:19;8.50;99.90
2663;DHT22;49701;48.072;7.800;2022-09-21T05:18:45;8.50;99.90
2663;DHT22;49701;48.072;7.800;2022-09-21T05:21:12;8.50;99.90
2663;DHT22;49701;48.072;7.800;2022-09-21T05:23:38;8.40;99.90
2663;DHT22;49701;48.072;7.800;2022-09-21T05:26:04;8.40;99.90
2663;DHT22;49701;48.072;7.800;2022-09-21T05:28:30;8.20;99.90
2663;DHT22;49701;48.072;7.800;2022-09-21T05:33:38;7.90;99.90
2663;DHT22;49701;48.072;7.800;2022-09-21T05:36:33;7.80;99.90
2663;DHT22;49701;48.072;7.800;2022-09-21T05:39:02;7.90;99.90
2663;DHT22;49701;48.072;7.800;2022-09-21T05:41:28;8.00;99.90
2663;DHT22;49701;48.072;7.800;2022-09-21T05:43:54;8.10;99.90
2663;DHT22;49701;48.072;7.800;2022-09-21T05:49:01;8.30;99.90
2663;DHT22;49701;48.072;7.800;2022-09-21T05:51:49;8.40;99.90
2663;DHT22;49701;48.072;7.800;2022-09-21T06:04:55;9.20;99.90
2663;DHT22;49701;48.072;7.800;2022-09-21T06:07:22;9.30;99.90
2663;DHT22;49701;48.072;7.800;2022-09-21T06:09:47;9.40;99.90
2663;DHT22;49701;48.072;7.800;2022-09-21T06:12:13;9.40;99.90
2663;DHT22;49701;48.072;7.800;2022-09-21T06:14:38;9.30;99.90
2663;DHT22;49701;48.072;7.800;2022-09-21T06:17:04;9.30;99.90
2663;DHT22;49701;48.072;7.800;2022-09-21T06:19:30;9.40;99.90
2663;DHT22;49701;48.072;7.800;2022-09-21T06:21:55;9.50;99.90
2663;DHT22;49701;48.072;7.800;2022-09-21T06:24:21;9.50;99.90
2663;DHT22;49701;48.072;7.800;2022-09-21T06:26:46;9.60;99.90
2663;DHT22;49701;48.072;7.800;2022-09-21T06:29:12;9.70;99.90
2663;DHT22;49701;48.072;7.800;2022-09-21T06:31:38;9.80;99.90
2663;DHT22;49701;48.072;7.800;2022-09-21T06:34:03;9.80;99.90
2663;DHT22;49701;48.072;7.800;2022-09-21T06:36:29;9.90;99.90
2663;DHT22;49701;48.072;7.800;2022-09-21T06:38:55;10.00;99.90
2663;DHT22;49701;48.072;7.800;2022-09-21T06:41:21;10.10;99.90
2663;DHT22;49701;48.072;7.800;2022-09-21T06:43:46;10.10;99.90
2663;DHT22;49701;48.072;7.800;2022-09-21T06:46:12;10.10;99.90
2663;DHT22;49701;48.072;7.800;2022-09-21T06:48:37;10.20;99.90
2663;DHT22;49701;48.072;7.800;2022-09-21T06:51:05;10.30;99.90
2663;DHT22;49701;48.072;7.800;2022-09-21T06:53:31;10.40;99.90
2663;DHT22;49701;48.072;7.800;2022-09-21T06:56:02;10.50;99.90
2663;DHT22;49701;48.072;7.800;2022-09-21T06:58:29;10.60;99.90
2663;DHT22;49701;48.072;7.800;2022-09-21T07:00:55;10.70;99.90
2663;DHT22;49701;48.072;7.800;2022-09-21T07:03:20;10.90;99.90
2663;DHT22;49701;48.072;7.800;2022-09-21T07:05:46;11.10;99.90
2663;DHT22;49701;48.072;7.800;2022-09-21T07:08:11;11.40;99.90
2663;DHT22;49701;48.072;7.800;2022-09-21T07:10:37;11.70;99.90
2663;DHT22;49701;48.072;7.800;2022-09-21T07:13:03;11.90;99.90
2663;DHT22;49701;48.072;7.800;2022-09-21T07:15:30;12.20;99.90
2663;DHT22;49701;48.072;7.800;2022-09-21T07:17:55;12.50;99.90
2663;DHT22;49701;48.072;7.800;2022-09-21T07:20:21;12.80;99.90
2663;DHT22;49701;48.072;7.800;2022-09-21T07:22:47;13.10;99.90
2663;DHT22;49701;48.072;7.800;2022-09-21T07:25:12;13.30;99.90
2663;DHT22;49701;48.072;7.800;2022-09-21T07:27:38;13.50;99.90
2663;DHT22;49701;48.072;7.800;2022-09-21T07:30:04;13.80;99.90
2663;DHT22;49701;48.072;7.800;2022-09-21T07:32:30;14.00;99.90
2663;DHT22;49701;48.072;7.800;2022-09-21T07:34:55;14.30;99.90
2663;DHT22;49701;48.072;7.800;2022-09-21T07:37:22;14.50;99.90
2663;DHT22;49701;48.072;7.800;2022-09-21T07:39:48;14.80;99.90
2663;DHT22;49701;48.072;7.800;2022-09-21T07:42:13;15.00;99.90
2663;DHT22;49701;48.072;7.800;2022-09-21T07:44:39;15.20;99.90
2663;DHT22;49701;48.072;7.800;2022-09-21T07:47:05;15.40;99.90
2663;DHT22;49701;48.072;7.800;2022-09-21T07:49:31;15.50;99.90
2663;DHT22;49701;48.072;7.800;2022-09-21T07:51:56;15.70;99.90
2663;DHT22;49701;48.072;7.800;2022-09-21T07:54:22;15.90;99.90
2663;DHT22;49701;48.072;7.800;2022-09-21T07:56:48;16.10;99.90
2663;DHT22;49701;48.072;7.800;2022-09-21T07:59:33;16.30;99.90
2663;DHT22;49701;48.072;7.800;2022-09-21T08:01:58;16.60;99.90
2663;DHT22;49701;48.072;7.800;2022-09-21T08:04:24;16.80;99.90
2663;DHT22;49701;48.072;7.800;2022-09-21T08:06:50;17.00;99.90
2663;DHT22;49701;48.072;7.800;2022-09-21T08:09:15;17.10;99.90
2663;DHT22;49701;48.072;7.800;2022-09-21T08:11:41;17.20;99.90
2663;DHT22;49701;48.072;7.800;2022-09-21T08:14:09;17.40;99.90
2663;DHT22;49701;48.072;7.800;2022-09-21T08:16:36;17.60;99.90
2663;DHT22;49701;48.072;7.800;2022-09-21T08:19:03;17.90;99.90
2663;DHT22;49701;48.072;7.800;2022-09-21T08:21:29;18.00;99.90
2663;DHT22;49701;48.072;7.800;2022-09-21T08:23:54;18.20;99.90
2663;DHT22;49701;48.072;7.800;2022-09-21T08:26:20;18.40;99.90
2663;DHT22;49701;48.072;7.800;2022-09-21T08:28:47;18.60;99.90
2663;DHT22;49701;48.072;7.800;2022-09-21T08:31:14;18.80;99.90
2663;DHT22;49701;48.072;7.800;2022-09-21T08:33:39;19.10;99.90
2663;DHT22;49701;48.072;7.800;2022-09-21T08:36:05;19.30;99.90
2663;DHT22;49701;48.072;7.800;2022-09-21T08:38:32;19.60;99.90
2663;DHT22;49701;48.072;7.800;2022-09-21T08:40:58;19.80;99.90
2663;DHT22;49701;48.072;7.800;2022-09-21T08:43:32;20.10;99.90
2663;DHT22;49701;48.072;7.800;2022-09-21T08:45:59;20.20;99.90
2663;DHT22;49701;48.072;7.800;2022-09-21T08:48:27;20.40;99.90
2663;DHT22;49701;48.072;7.800;2022-09-21T08:50:54;20.60;99.90
2663;DHT22;49701;48.072;7.800;2022-09-21T08:53:30;20.70;99.90
2663;DHT22;49701;48.072;7.800;2022-09-21T08:55:57;20.80;99.90
2663;DHT22;49701;48.072;7.800;2022-09-21T09:00:50;21.20;99.90
2663;DHT22;49701;48.072;7.800;2022-09-21T09:03:25;21.40;99.90
2663;DHT22;49701;48.072;7.800;2022-09-21T09:05:54;21.60;99.90
2663;DHT22;49701;48.072;7.800;2022-09-21T09:11:41;21.90;99.60
2663;DHT22;49701;48.072;7.800;2022-09-21T09:14:24;22.20;98.40
2663;DHT22;49701;48.072;7.800;2022-09-21T09:19:32;22.50;97.10
2663;DHT22;49701;48.072;7.800;2022-09-21T09:22:03;22.60;97.10
2663;DHT22;49701;48.072;7.800;2022-09-21T09:24:42;22.80;97.00
2663;DHT22;49701;48.072;7.800;2022-09-21T09:32:28;23.20;94.50
2663;DHT22;49701;48.072;7.800;2022-09-21T09:34:56;23.40;94.20
2663;DHT22;49701;48.072;7.800;2022-09-21T09:37:26;23.60;93.30
2663;DHT22;49701;48.072;7.800;2022-09-21T09:39:54;23.70;92.90
2663;DHT22;49701;48.072;7.800;2022-09-21T09:44:57;24.00;91.80
2663;DHT22;49701;48.072;7.800;2022-09-21T09:47:41;24.20;91.20
2663;DHT22;49701;48.072;7.800;2022-09-21T09:52:47;24.60;90.30
2663;DHT22;49701;48.072;7.800;2022-09-21T09:55:16;24.70;89.90
2663;DHT22;49701;48.072;7.800;2022-09-21T09:57:44;24.90;89.20
2663;DHT22;49701;48.072;7.800;2022-09-21T10:00:13;25.10;88.70
2663;DHT22;49701;48.072;7.800;2022-09-21T10:05:17;25.10;84.20
2663;DHT22;49701;48.072;7.800;2022-09-21T10:07:44;25.30;85.00
2663;DHT22;49701;48.072;7.800;2022-09-21T10:12:54;25.40;84.30
2663;DHT22;49701;48.072;7.800;2022-09-21T10:15:20;25.40;84.10
2663;DHT22;49701;48.072;7.800;2022-09-21T10:17:55;25.50;84.00
2663;DHT22;49701;48.072;7.800;2022-09-21T10:20:21;25.50;83.80
2663;DHT22;49701;48.072;7.800;2022-09-21T10:22:47;25.60;82.30
2663;DHT22;49701;48.072;7.800;2022-09-21T10:25:14;25.50;82.30
2663;DHT22;49701;48.072;7.800;2022-09-21T10:27:41;25.60;80.80
2663;DHT22;49701;48.072;7.800;2022-09-21T10:30:30;25.80;80.00
2663;DHT22;49701;48.072;7.800;2022-09-21T10:32:57;26.00;79.30
2663;DHT22;49701;48.072;7.800;2022-09-21T10:35:24;26.30;77.50
2663;DHT22;49701;48.072;7.800;2022-09-21T10:38:07;26.70;77.10
2663;DHT22;49701;48.072;7.800;2022-09-21T10:40:35;27.00;75.00
2663;DHT22;49701;48.072;7.800;2022-09-21T10:43:00;27.20;72.90
2663;DHT22;49701;48.072;7.800;2022-09-21T10:45:29;27.40;72.60
2663;DHT22;49701;48.072;7.800;2022-09-21T10:53:10;27.80;68.60
2663;DHT22;49701;48.072;7.800;2022-09-21T10:55:37;28.00;66.20
2663;DHT22;49701;48.072;7.800;2022-09-21T10:58:07;28.20;65.20
2663;DHT22;49701;48.072;7.800;2022-09-21T11:00:39;28.40;64.60
2663;DHT22;49701;48.072;7.800;2022-09-21T11:03:25;28.80;62.40
2663;DHT22;49701;48.072;7.800;2022-09-21T11:05:52;29.20;58.20
2663;DHT22;49701;48.072;7.800;2022-09-21T11:08:21;29.10;55.40
2663;DHT22;49701;48.072;7.800;2022-09-21T11:16:00;29.10;53.60
2663;DHT22;49701;48.072;7.800;2022-09-21T11:21:14;29.20;52.10
2663;DHT22;49701;48.072;7.800;2022-09-21T11:23:54;29.20;51.10
2663;DHT22;49701;48.072;7.800;2022-09-21T11:26:28;29.10;52.40
2663;DHT22;49701;48.072;7.800;2022-09-21T11:36:36;28.80;49.50
2663;DHT22;49701;48.072;7.800;2022-09-21T11:44:32;28.40;51.40
2663;DHT22;49701;48.072;7.800;2022-09-21T11:52:17;28.80;50.40
2663;DHT22;49701;48.072;7.800;2022-09-21T11:57:19;29.40;50.80
2663;DHT22;49701;48.072;7.800;2022-09-21T12:02:26;30.10;50.00
2663;DHT22;49701;48.072;7.800;2022-09-21T12:12:55;29.80;48.70
2663;DHT22;49701;48.072;7.800;2022-09-21T12:15:23;29.90;48.70
2663;DHT22;49701;48.072;7.800;2022-09-21T12:17:59;29.90;48.30
2663;DHT22;49701;48.072;7.800;2022-09-21T12:23:22;29.70;48.40
2663;DHT22;49701;48.072;7.800;2022-09-21T12:25:51;29.70;48.50
2663;DHT22;49701;48.072;7.800;2022-09-21T12:28:27;29.60;48.50
2663;DHT22;49701;48.072;7.800;2022-09-21T12:30:58;29.60;49.30
2663;DHT22;49701;48.072;7.800;2022-09-21T12:33:49;29.50;48.80
2663;DHT22;49701;48.072;7.800;2022-09-21T12:36:17;29.50;49.40
2663;DHT22;49701;48.072;7.800;2022-09-21T12:38:56;29.30;49.00
2663;DHT22;49701;48.072;7.800;2022-09-21T12:43:50;29.20;49.30
2663;DHT22;49701;48.072;7.800;2022-09-21T12:46:22;29.10;49.90
2663;DHT22;49701;48.072;7.800;2022-09-21T12:48:48;29.20;49.70
2663;DHT22;49701;48.072;7.800;2022-09-21T12:54:03;29.40;49.40
2663;DHT22;49701;48.072;7.800;2022-09-21T13:01:55;29.20;49.00
2663;DHT22;49701;48.072;7.800;2022-09-21T13:09:39;29.60;48.90
2663;DHT22;49701;48.072;7.800;2022-09-21T13:12:08;29.80;47.90
2663;DHT22;49701;48.072;7.800;2022-09-21T13:14:35;29.60;48.40
2663;DHT22;49701;48.072;7.800;2022-09-21T13:17:05;29.60;48.40
2663;DHT22;49701;48.072;7.800;2022-09-21T13:19:32;29.70;48.40
2663;DHT22;49701;48.072;7.800;2022-09-21T13:24:45;29.90;47.50
2663;DHT22;49701;48.072;7.800;2022-09-21T13:27:12;29.70;48.00
2663;DHT22;49701;48.072;7.800;2022-09-21T13:29:38;29.50;48.30
2663;DHT22;49701;48.072;7.800;2022-09-21T13:34:42;29.40;48.50
2663;DHT22;49701;48.072;7.800;2022-09-21T13:39:44;28.90;48.10
2663;DHT22;49701;48.072;7.800;2022-09-21T13:44:56;28.90;49.10
2663;DHT22;49701;48.072;7.800;2022-09-21T13:49:56;29.10;49.50
2663;DHT22;49701;48.072;7.800;2022-09-21T13:52:44;29.20;49.30
2663;DHT22;49701;48.072;7.800;2022-09-21T13:55:18;29.10;50.00
2663;DHT22;49701;48.072;7.800;2022-09-21T13:57:46;29.10;49.50
2663;DHT22;49701;48.072;7.800;2022-09-21T14:02:38;28.80;48.70
2663;DHT22;49701;48.072;7.800;2022-09-21T14:05:21;28.70;49.30
2663;DHT22;49701;48.072;7.800;2022-09-21T14:07:53;28.60;49.50
2663;DHT22;49701;48.072;7.800;2022-09-21T14:10:19;28.70;49.60
2663;DHT22;49701;48.072;7.800;2022-09-21T14:12:45;28.60;49.80
2663;DHT22;49701;48.072;7.800;2022-09-21T14:17:40;28.30;50.50
2663;DHT22;49701;48.072;7.800;2022-09-21T14:23:09;27.80;51.10
2663;DHT22;49701;48.072;7.800;2022-09-21T14:28:42;27.50;50.90
2663;DHT22;49701;48.072;7.800;2022-09-21T14:31:26;27.30;51.90
2663;DHT22;49701;48.072;7.800;2022-09-21T14:33:54;27.20;51.60
2663;DHT22;49701;48.072;7.800;2022-09-21T14:36:23;27.00;51.60
2663;DHT22;49701;48.072;7.800;2022-09-21T14:38:55;26.90;51.80
2663;DHT22;49701;48.072;7.800;2022-09-21T14:41:23;26.70;52.40
2663;DHT22;49701;48.072;7.800;2022-09-21T14:43:52;26.60;52.60
2663;DHT22;49701;48.072;7.800;2022-09-21T14:46:30;26.60;53.30
2663;DHT22;49701;48.072;7.800;2022-09-21T14:49:11;26.70;52.40
2663;DHT22;49701;48.072;7.800;2022-09-21T15:01:39;25.20;54.40
2663;DHT22;49701;48.072;7.800;2022-09-21T15:04:13;25.10;55.00
2663;DHT22;49701;48.072;7.800;2022-09-21T15:06:47;25.00;55.20
2663;DHT22;49701;48.072;7.800;2022-09-21T15:09:47;25.10;55.30
2663;DHT22;49701;48.072;7.800;2022-09-21T15:12:37;25.20;54.90
2663;DHT22;49701;48.072;7.800;2022-09-21T15:17:55;24.70;55.50
2663;DHT22;49701;48.072;7.800;2022-09-21T15:20:23;24.40;55.80
2663;DHT22;49701;48.072;7.800;2022-09-21T15:22:52;24.30;56.50
2663;DHT22;49701;48.072;7.800;2022-09-21T15:25:18;24.30;56.60
2663;DHT22;49701;48.072;7.800;2022-09-21T15:27:43;24.20;57.00
2663;DHT22;49701;48.072;7.800;2022-09-21T15:32:46;24.30;56.60
2663;DHT22;49701;48.072;7.800;2022-09-21T15:35:22;24.30;56.60
2663;DHT22;49701;48.072;7.800;2022-09-21T15:37:48;24.20;56.20
2663;DHT22;49701;48.072;7.800;2022-09-21T15:45:25;23.90;57.00
2663;DHT22;49701;48.072;7.800;2022-09-21T15:47:52;24.00;56.60
2663;DHT22;49701;48.072;7.800;2022-09-21T15:50:18;23.90;56.90
2663;DHT22;49701;48.072;7.800;2022-09-21T15:52:46;23.80;57.20
2663;DHT22;49701;48.072;7.800;2022-09-21T15:55:17;23.70;57.70
2663;DHT22;49701;48.072;7.800;2022-09-21T15:57:53;23.50;58.10
2663;DHT22;49701;48.072;7.800;2022-09-21T16:00:25;23.40;58.50
2663;DHT22;49701;48.072;7.800;2022-09-21T16:02:57;23.20;58.70
2663;DHT22;49701;48.072;7.800;2022-09-21T16:05:29;23.10;59.20
2663;DHT22;49701;48.072;7.800;2022-09-21T16:08:05;23.00;59.40
2663;DHT22;49701;48.072;7.800;2022-09-21T16:10:35;22.80;59.70
2663;DHT22;49701;48.072;7.800;2022-09-21T16:13:02;22.50;60.00
2663;DHT22;49701;48.072;7.800;2022-09-21T16:16:04;22.20;61.00
2663;DHT22;49701;48.072;7.800;2022-09-21T16:18:52;21.90;61.80
2663;DHT22;49701;48.072;7.800;2022-09-21T16:21:23;21.70;63.10
2663;DHT22;49701;48.072;7.800;2022-09-21T16:23:52;21.50;63.70
2663;DHT22;49701;48.072;7.800;2022-09-21T16:26:24;21.30;64.60
2663;DHT22;49701;48.072;7.800;2022-09-21T16:28:57;21.10;65.20
2663;DHT22;49701;48.072;7.800;2022-09-21T16:31:26;20.80;66.20
2663;DHT22;49701;48.072;7.800;2022-09-21T16:38:46;20.10;68.40
2663;DHT22;49701;48.072;7.800;2022-09-21T16:41:12;20.00;69.20
2663;DHT22;49701;48.072;7.800;2022-09-21T16:43:38;19.80;69.80
2663;DHT22;49701;48.072;7.800;2022-09-21T16:46:11;19.60;70.40
2663;DHT22;49701;48.072;7.800;2022-09-21T16:48:36;19.50;70.90
2663;DHT22;49701;48.072;7.800;2022-09-21T16:51:02;19.40;71.60
2663;DHT22;49701;48.072;7.800;2022-09-21T16:53:27;19.30;72.30
2663;DHT22;49701;48.072;7.800;2022-09-21T16:55:53;19.20;72.50
2663;DHT22;49701;48.072;7.800;2022-09-21T16:58:19;19.00;72.90
2663;DHT22;49701;48.072;7.800;2022-09-21T17:00:48;18.90;73.70
2663;DHT22;49701;48.072;7.800;2022-09-21T17:03:16;18.70;74.40
2663;DHT22;49701;48.072;7.800;2022-09-21T17:05:41;18.60;74.90
2663;DHT22;49701;48.072;7.800;2022-09-21T17:08:08;18.40;75.50
2663;DHT22;49701;48.072;7.800;2022-09-21T17:10:40;18.30;76.00
2663;DHT22;49701;48.072;7.800;2022-09-21T17:13:07;18.20;76.70
2663;DHT22;49701;48.072;7.800;2022-09-21T17:15:34;18.10;77.60
2663;DHT22;49701;48.072;7.800;2022-09-21T17:18:01;18.00;77.90
2663;DHT22;49701;48.072;7.800;2022-09-21T17:20:32;17.80;77.90
2663;DHT22;49701;48.072;7.800;2022-09-21T17:22:58;17.70;78.30
2663;DHT22;49701;48.072;7.800;2022-09-21T17:25:25;17.60;79.20
2663;DHT22;49701;48.072;7.800;2022-09-21T17:27:52;17.40;79.50
2663;DHT22;49701;48.072;7.800;2022-09-21T17:30:18;17.30;79.80
2663;DHT22;49701;48.072;7.800;2022-09-21T17:32:45;17.20;80.30
2663;DHT22;49701;48.072;7.800;2022-09-21T17:35:32;17.10;80.80
2663;DHT22;49701;48.072;7.800;2022-09-21T17:37:58;17.00;81.20
2663;DHT22;49701;48.072;7.800;2022-09-21T17:40:24;16.80;81.70
2663;DHT22;49701;48.072;7.800;2022-09-21T17:42:55;16.80;82.40
2663;DHT22;49701;48.072;7.800;2022-09-21T17:45:48;16.70;83.20
2663;DHT22;49701;48.072;7.800;2022-09-21T17:48:20;16.60;83.60
2663;DHT22;49701;48.072;7.800;2022-09-21T17:50:47;16.50;84.20
2663;DHT22;49701;48.072;7.800;2022-09-21T17:53:13;16.30;84.60
2663;DHT22;49701;48.072;7.800;2022-09-21T17:56:02;16.30;85.30
2663;DHT22;49701;48.072;7.800;2022-09-21T17:58:43;16.20;85.70
2663;DHT22;49701;48.072;7.800;2022-09-21T18:03:41;15.90;86.20
2663;DHT22;49701;48.072;7.800;2022-09-21T18:06:10;15.90;86.40
2663;DHT22;49701;48.072;7.800;2022-09-21T18:08:38;15.80;86.50
2663;DHT22;49701;48.072;7.800;2022-09-21T18:11:44;15.80;86.90
2663;DHT22;49701;48.072;7.800;2022-09-21T18:14:36;15.70;87.90
2663;DHT22;49701;48.072;7.800;2022-09-21T18:22:40;15.50;88.60
2663;DHT22;49701;48.072;7.800;2022-09-21T18:27:55;15.30;89.40
2663;DHT22;49701;48.072;7.800;2022-09-21T18:30:23;15.30;89.80
2663;DHT22;49701;48.072;7.800;2022-09-21T18:33:07;15.30;90.00
2663;DHT22;49701;48.072;7.800;2022-09-21T18:46:36;15.00;91.00
2663;DHT22;49701;48.072;7.800;2022-09-21T18:51:52;14.80;91.20
2663;DHT22;49701;48.072;7.800;2022-09-21T18:54:22;14.80;91.40
2663;DHT22;49701;48.072;7.800;2022-09-21T18:56:49;14.70;91.60
2663;DHT22;49701;48.072;7.800;2022-09-21T18:59:16;14.70;91.60
2663;DHT22;49701;48.072;7.800;2022-09-21T19:01:42;14.60;91.80
2663;DHT22;49701;48.072;7.800;2022-09-21T19:04:09;14.50;92.10
2663;DHT22;49701;48.072;7.800;2022-09-21T19:14:35;14.10;93.80
2663;DHT22;49701;48.072;7.800;2022-09-21T19:25:03;13.70;96.20
2663;DHT22;49701;48.072;7.800;2022-09-21T19:27:42;13.60;96.90
2663;DHT22;49701;48.072;7.800;2022-09-21T19:32:42;13.50;98.20
2663;DHT22;49701;48.072;7.800;2022-09-21T19:35:27;13.40;98.80